Time;durP1;ratioP1;P1;durP2;ratioP2;P2;SDS_P1;SDS_P2;PMS_P1;PMS_P2;Temp;Humidity;BMP_temperature;BMP_pressure;BME280_temperature;BME280_humidity;BME280_pressure;Samples;Min_cycle;Max_cycle;Signal;HPM_P1;HPM_P2
2023/06/01 00:00:16;;;;;;;10.83;5.70;;;11.60;99.90;;;;;;5042403;28;20253;-80
2023/06/01 00:02:46;;;;;;;12.00;5.57;;;11.50;99.90;;;;;;5061520;28;20251;-78
2023/06/01 00:05:12;;;;;;;12.30;4.30;;;11.50;99.90;;;;;;5064228;28;20220;-79
2023/06/01 00:07:39;;;;;;;11.67;5.10;;;11.50;99.90;;;;;;5044277;28;20286;-80
2023/06/01 00:10:06;;;;;;;11.20;4.87;;;11.50;99.90;;;;;;5067913;28;20236;-81
2023/06/01 00:12:33;;;;;;;13.97;5.33;;;11.50;99.90;;;;;;5047902;28;20813;-79
2023/06/01 00:15:00;;;;;;;11.67;4.90;;;11.40;99.90;;;;;;5048708;28;20235;-80
2023/06/01 00:17:29;;;;;;;11.03;5.03;;;11.40;99.90;;;;;;5063859;28;20343;-80
2023/06/01 00:19:55;;;;;;;15.30;5.07;;;11.40;99.90;;;;;;5036613;28;20287;-80
2023/06/01 00:22:23;;;;;;;11.03;5.10;;;11.40;99.90;;;;;;5048100;28;20311;-79
2023/06/01 00:24:50;;;;;;;13.77;5.60;;;11.40;99.90;;;;;;5044012;28;20246;-79
2023/06/01 00:27:17;;;;;;;11.73;4.60;;;11.30;99.90;;;;;;5068141;28;20222;-80
2023/06/01 00:29:43;;;;;;;13.20;5.10;;;11.30;99.90;;;;;;5063680;28;20287;-80
2023/06/01 00:32:10;;;;;;;14.40;5.60;;;11.30;99.90;;;;;;5045512;28;20217;-78
2023/06/01 00:34:38;;;;;;;11.53;5.17;;;11.30;99.90;;;;;;5049499;28;20249;-80
2023/06/01 00:37:05;;;;;;;13.20;5.10;;;11.30;99.90;;;;;;5065012;28;20230;-79
2023/06/01 00:39:32;;;;;;;11.10;4.67;;;11.30;99.90;;;;;;5051550;28;20777;-78
2023/06/01 00:42:00;;;;;;;11.63;4.63;;;11.40;99.90;;;;;;5048138;28;20210;-80
2023/06/01 00:44:27;;;;;;;14.53;5.20;;;11.30;99.90;;;;;;5047562;28;20310;-79
2023/06/01 00:46:54;;;;;;;9.53;4.97;;;11.30;99.90;;;;;;5047462;28;20573;-81
2023/06/01 00:49:21;;;;;;;11.87;5.40;;;11.30;99.90;;;;;;5045371;28;20300;-78
2023/06/01 00:51:49;;;;;;;12.27;5.77;;;11.40;99.90;;;;;;5048206;28;20302;-80
2023/06/01 00:54:16;;;;;;;13.80;5.93;;;11.30;99.90;;;;;;5047471;28;20223;-80
2023/06/01 00:56:42;;;;;;;9.30;5.17;;;11.30;99.90;;;;;;5045978;28;20213;-80
2023/06/01 00:59:09;;;;;;;11.10;5.37;;;11.30;99.90;;;;;;5047688;28;20223;-78
2023/06/01 01:01:36;;;;;;;12.53;5.00;;;11.30;99.90;;;;;;5047840;28;20230;-81
2023/06/01 01:04:04;;;;;;;8.50;5.27;;;11.30;99.90;;;;;;5045960;28;20235;-80
2023/06/01 01:06:48;;;;;;;17.73;6.20;;;11.30;99.90;;;;;;5061251;28;21891;-78
2023/06/01 01:09:24;;;;;;;8.67;5.57;;;11.20;99.90;;;;;;5043864;28;20787;-79
2023/06/01 01:11:58;;;;;;;13.73;5.63;;;11.20;99.90;;;;;;5049840;28;20230;-79
2023/06/01 01:14:30;;;;;;;9.70;5.90;;;11.20;99.90;;;;;;5046633;28;20304;-79
2023/06/01 01:17:03;;;;;;;11.63;6.20;;;11.20;99.90;;;;;;5047091;28;20228;-80
2023/06/01 01:19:53;;;;;;;10.03;6.80;;;11.20;99.90;;;;;;5046469;28;20221;-80
2023/06/01 01:22:26;;;;;;;11.27;7.30;;;11.20;99.90;;;;;;5060695;28;20225;-80
2023/06/01 01:25:21;;;;;;;10.93;6.93;;;11.20;99.90;;;;;;5048045;28;20231;-80
2023/06/01 01:28:13;;;;;;;10.27;7.50;;;11.20;99.90;;;;;;5043364;28;20243;-78
2023/06/01 01:30:43;;;;;;;12.30;7.60;;;11.30;99.90;;;;;;5061195;28;20224;-80
2023/06/01 01:33:11;;;;;;;13.23;6.67;;;11.30;99.90;;;;;;5059512;28;20223;-79
2023/06/01 01:35:38;;;;;;;11.93;6.80;;;11.30;99.90;;;;;;5043945;28;20655;-78
2023/06/01 01:38:05;;;;;;;10.97;6.80;;;11.30;99.90;;;;;;5058535;28;20776;-79
2023/06/01 01:40:32;;;;;;;13.40;6.77;;;11.20;99.90;;;;;;5045699;28;20234;-79
2023/06/01 01:43:01;;;;;;;14.23;7.17;;;11.20;99.90;;;;;;5047725;28;20248;-79
2023/06/01 01:45:28;;;;;;;18.00;7.00;;;11.20;99.90;;;;;;5045028;28;20219;-79
2023/06/01 01:48:04;;;;;;;12.53;7.20;;;11.20;99.90;;;;;;5064023;28;20633;-80
2023/06/01 01:50:37;;;;;;;14.43;7.03;;;11.10;99.90;;;;;;5046081;28;20500;-79
2023/06/01 01:53:06;;;;;;;12.80;7.77;;;11.10;99.90;;;;;;5058069;28;20313;-79
2023/06/01 01:55:35;;;;;;;15.63;8.27;;;11.10;99.90;;;;;;5063835;28;20244;-79
2023/06/01 01:58:03;;;;;;;12.90;7.93;;;11.10;99.90;;;;;;5047264;28;20226;-78
2023/06/01 02:00:31;;;;;;;11.93;7.87;;;11.10;99.90;;;;;;5046507;28;20229;-79
2023/06/01 02:03:00;;;;;;;16.10;7.80;;;11.10;99.90;;;;;;5044641;28;20217;-77
2023/06/01 02:05:27;;;;;;;15.37;8.17;;;11.10;99.90;;;;;;5042097;28;21963;-78
2023/06/01 02:07:53;;;;;;;12.47;7.90;;;11.10;99.90;;;;;;5046733;28;20224;-80
2023/06/01 02:10:20;;;;;;;12.57;7.53;;;11.10;99.90;;;;;;5044290;28;20223;-79
2023/06/01 02:12:47;;;;;;;14.10;7.73;;;11.10;99.90;;;;;;5041955;28;20219;-80
2023/06/01 02:15:15;;;;;;;10.27;7.03;;;11.10;99.90;;;;;;5043696;28;20226;-81
2023/06/01 02:17:42;;;;;;;13.50;7.77;;;11.10;99.90;;;;;;5046804;28;20231;-81
2023/06/01 02:20:12;;;;;;;10.90;6.73;;;11.10;99.90;;;;;;5046591;28;20219;-80
2023/06/01 02:22:39;;;;;;;12.33;6.93;;;11.10;99.90;;;;;;5044202;28;20219;-80
2023/06/01 02:25:09;;;;;;;12.37;7.13;;;11.10;99.90;;;;;;5058801;28;20232;-81
2023/06/01 02:27:36;;;;;;;13.73;6.57;;;11.10;99.90;;;;;;5048011;28;20238;-79
2023/06/01 02:30:06;;;;;;;11.57;6.53;;;11.10;99.90;;;;;;5045713;28;20221;-80
2023/06/01 02:32:34;;;;;;;12.83;7.00;;;11.10;99.90;;;;;;5045453;28;20222;-80
2023/06/01 02:35:02;;;;;;;13.30;6.60;;;11.10;99.90;;;;;;5045159;28;20249;-81
2023/06/01 02:37:30;;;;;;;12.03;6.73;;;11.10;99.90;;;;;;5044688;28;20814;-78
2023/06/01 02:39:57;;;;;;;14.77;7.30;;;11.10;99.90;;;;;;5046996;28;20225;-81
2023/06/01 02:42:24;;;;;;;19.77;7.87;;;11.10;99.90;;;;;;5045624;28;20238;-80
2023/06/01 02:44:50;;;;;;;14.93;7.87;;;11.10;99.90;;;;;;5064150;28;20223;-81
2023/06/01 02:47:17;;;;;;;15.10;8.13;;;11.10;99.90;;;;;;5062118;28;20220;-78
2023/06/01 02:49:44;;;;;;;12.70;7.37;;;11.10;99.90;;;;;;5046564;28;20229;-80
2023/06/01 02:52:11;;;;;;;11.00;7.53;;;11.10;99.90;;;;;;5042073;28;20560;-79
2023/06/01 02:54:39;;;;;;;13.63;7.73;;;11.20;99.90;;;;;;5044087;28;20260;-79
2023/06/01 02:57:24;;;;;;;11.70;7.67;;;11.20;99.90;;;;;;5046230;28;21698;-80
2023/06/01 02:59:55;;;;;;;14.17;7.53;;;11.20;99.90;;;;;;5042647;28;20282;-78
2023/06/01 03:02:22;;;;;;;14.80;7.47;;;11.10;99.90;;;;;;5064272;28;20234;-77
2023/06/01 03:04:50;;;;;;;14.27;7.13;;;11.10;99.90;;;;;;5043496;28;20223;-77
2023/06/01 03:07:17;;;;;;;13.07;7.60;;;11.10;99.90;;;;;;5039920;28;20224;-80
2023/06/01 03:09:51;;;;;;;14.50;7.10;;;11.10;99.90;;;;;;5062192;28;20244;-80
2023/06/01 03:12:36;;;;;;;12.87;7.10;;;11.10;99.90;;;;;;5063270;28;20237;-79
2023/06/01 03:15:04;;;;;;;12.87;6.97;;;11.10;99.90;;;;;;5044868;28;20231;-79
2023/06/01 03:17:31;;;;;;;13.23;7.30;;;11.10;99.90;;;;;;5042643;28;20254;-79
2023/06/01 03:19:58;;;;;;;17.23;7.23;;;11.10;99.90;;;;;;5061278;28;20228;-79
2023/06/01 03:22:25;;;;;;;12.43;6.83;;;11.10;99.90;;;;;;5048846;28;20218;-79
2023/06/01 03:24:54;;;;;;;12.50;7.20;;;11.10;99.90;;;;;;5044477;28;20211;-79
2023/06/01 03:27:26;;;;;;;13.90;7.40;;;11.10;99.90;;;;;;5043545;28;20279;-82
2023/06/01 03:29:53;;;;;;;12.87;6.60;;;11.10;99.90;;;;;;5047792;28;20215;-83
2023/06/01 03:32:20;;;;;;;13.63;7.63;;;11.10;99.90;;;;;;5041163;28;20223;-84
2023/06/01 03:34:48;;;;;;;14.03;7.17;;;11.10;99.90;;;;;;5043616;28;20216;-83
2023/06/01 03:37:17;;;;;;;10.50;6.53;;;11.20;99.90;;;;;;5042381;28;20230;-83
2023/06/01 03:39:44;;;;;;;18.07;6.37;;;11.10;99.90;;;;;;5041548;28;20669;-83
2023/06/01 03:42:14;;;;;;;11.93;6.17;;;11.10;99.90;;;;;;5043165;28;20230;-82
2023/06/01 03:44:41;;;;;;;10.17;5.90;;;11.10;99.90;;;;;;5040875;28;20225;-83
2023/06/01 03:47:08;;;;;;;12.83;6.60;;;11.20;99.90;;;;;;5048471;28;20223;-82
2023/06/01 03:49:35;;;;;;;11.77;6.30;;;11.20;99.90;;;;;;5058625;28;20234;-82
2023/06/01 03:52:06;;;;;;;15.17;6.40;;;11.20;99.90;;;;;;5037538;28;20280;-81
2023/06/01 03:54:34;;;;;;;14.47;6.87;;;11.20;99.90;;;;;;5042593;28;20235;-82
2023/06/01 03:57:01;;;;;;;13.77;6.27;;;11.20;99.90;;;;;;5045819;28;20223;-82
2023/06/01 03:59:29;;;;;;;15.47;6.80;;;11.20;99.90;;;;;;5039978;28;20235;-83
2023/06/01 04:01:57;;;;;;;10.93;6.63;;;11.20;99.90;;;;;;5042791;28;20224;-84
2023/06/01 04:04:29;;;;;;;13.03;6.43;;;11.20;99.90;;;;;;5044504;28;20222;-82
2023/06/01 04:07:00;;;;;;;12.83;6.57;;;11.20;99.90;;;;;;5066243;28;20268;-83
2023/06/01 04:09:27;;;;;;;12.10;6.27;;;11.30;99.90;;;;;;5047206;28;20282;-83
2023/06/01 04:11:54;;;;;;;13.93;6.60;;;11.30;99.90;;;;;;5048056;28;20223;-82
2023/06/01 04:14:21;;;;;;;13.23;6.70;;;11.30;99.90;;;;;;5045542;28;20318;-83
2023/06/01 04:16:49;;;;;;;10.80;6.73;;;11.30;99.90;;;;;;5046078;28;20311;-82
2023/06/01 04:19:16;;;;;;;15.33;6.90;;;11.30;99.90;;;;;;5046425;28;20212;-82
2023/06/01 04:21:43;;;;;;;15.57;7.47;;;11.30;99.90;;;;;;5047252;28;20310;-82
2023/06/01 04:24:12;;;;;;;11.87;6.73;;;11.40;99.90;;;;;;5039667;28;20231;-79
2023/06/01 04:26:39;;;;;;;12.23;6.63;;;11.30;99.90;;;;;;5065057;28;20283;-82
2023/06/01 04:29:08;;;;;;;17.90;6.80;;;11.40;99.90;;;;;;5045845;28;20756;-81
2023/06/01 04:31:35;;;;;;;14.40;6.47;;;11.40;99.90;;;;;;5037480;28;20218;-80
2023/06/01 04:34:05;;;;;;;11.07;6.40;;;11.40;99.90;;;;;;5063715;28;20224;-79
2023/06/01 04:36:37;;;;;;;11.87;6.40;;;11.40;99.90;;;;;;5042657;28;20277;-81
2023/06/01 04:39:04;;;;;;;13.77;6.43;;;11.40;99.90;;;;;;5044652;28;20219;-79
2023/06/01 04:41:33;;;;;;;10.80;6.30;;;11.50;99.90;;;;;;5045042;28;20233;-81
2023/06/01 04:43:59;;;;;;;11.67;6.33;;;11.50;99.90;;;;;;5048594;28;20297;-81
2023/06/01 04:46:27;;;;;;;10.47;6.10;;;11.50;99.90;;;;;;5047324;28;20365;-79
2023/06/01 04:49:00;;;;;;;14.37;5.53;;;11.60;99.90;;;;;;5047186;28;20328;-81
2023/06/01 04:51:30;;;;;;;11.53;5.40;;;11.70;99.90;;;;;;5057957;28;21119;-82
2023/06/01 04:53:58;;;;;;;17.70;8.77;;;11.70;99.90;;;;;;5059432;28;20314;-82
2023/06/01 04:56:27;;;;;;;17.70;5.60;;;11.80;99.90;;;;;;5046657;28;20223;-82
2023/06/01 04:58:57;;;;;;;11.90;5.63;;;11.80;99.90;;;;;;5043773;28;20714;-81
2023/06/01 05:01:26;;;;;;;10.23;5.27;;;11.80;99.90;;;;;;5041110;28;20310;-81
2023/06/01 05:03:55;;;;;;;10.87;5.63;;;11.90;99.90;;;;;;5065559;28;20229;-82
2023/06/01 05:06:21;;;;;;;11.53;5.77;;;11.90;99.90;;;;;;5047838;28;20217;-80
2023/06/01 05:08:49;;;;;;;15.33;5.63;;;11.90;99.90;;;;;;5046624;28;20312;-80
2023/06/01 05:11:17;;;;;;;13.43;5.77;;;12.00;99.90;;;;;;5042768;28;20602;-80
2023/06/01 05:13:44;;;;;;;10.97;5.93;;;12.00;99.90;;;;;;5043760;28;20218;-82
2023/06/01 05:16:12;;;;;;;12.77;5.90;;;12.00;99.90;;;;;;5046271;28;20224;-80
2023/06/01 05:18:40;;;;;;;10.80;5.30;;;12.00;99.90;;;;;;5055407;28;20310;-82
2023/06/01 05:21:07;;;;;;;9.47;5.43;;;12.00;99.90;;;;;;5043012;28;20219;-81
2023/06/01 05:23:33;;;;;;;10.53;5.20;;;12.00;99.90;;;;;;5060529;28;20628;-81
2023/06/01 05:26:02;;;;;;;10.40;5.30;;;12.00;99.90;;;;;;5046249;28;20215;-80
2023/06/01 05:28:33;;;;;;;10.77;5.77;;;12.00;99.90;;;;;;5045228;28;20843;-83
2023/06/01 05:31:00;;;;;;;14.07;5.30;;;12.10;99.90;;;;;;5043049;28;20230;-81
2023/06/01 05:33:27;;;;;;;13.57;6.83;;;12.10;99.90;;;;;;5045041;28;20229;-83
2023/06/01 05:35:54;;;;;;;12.77;4.80;;;12.20;99.90;;;;;;5065296;28;20228;-85
2023/06/01 05:38:24;;;;;;;11.27;4.90;;;12.20;99.90;;;;;;5044445;28;20238;-80
2023/06/01 05:40:51;;;;;;;13.23;5.10;;;12.20;99.90;;;;;;5050604;28;20847;-80
2023/06/01 05:43:19;;;;;;;10.37;4.87;;;12.30;99.90;;;;;;5043810;28;20213;-81
2023/06/01 05:45:46;;;;;;;8.57;4.33;;;12.30;99.90;;;;;;5060748;28;20313;-79
2023/06/01 05:48:14;;;;;;;11.53;5.03;;;12.30;99.90;;;;;;5042092;28;20260;-80
2023/06/01 05:50:41;;;;;;;11.00;4.30;;;12.30;99.90;;;;;;5045010;28;20256;-83
2023/06/01 05:53:08;;;;;;;7.57;4.13;;;12.30;99.90;;;;;;5045910;28;21052;-80
2023/06/01 05:55:35;;;;;;;9.80;4.90;;;12.40;99.90;;;;;;5058156;28;20235;-81
2023/06/01 05:58:03;;;;;;;14.10;4.57;;;12.40;99.90;;;;;;5063761;28;20301;-81
2023/06/01 06:00:31;;;;;;;13.83;4.47;;;12.50;99.90;;;;;;5039977;28;20230;-81
2023/06/01 06:02:58;;;;;;;8.77;4.13;;;12.50;99.90;;;;;;5024203;28;20233;-82
2023/06/01 06:05:24;;;;;;;10.00;4.27;;;12.50;99.90;;;;;;5064019;28;20234;-79
2023/06/01 06:07:51;;;;;;;9.60;3.60;;;12.60;99.90;;;;;;5048366;28;20221;-81
2023/06/01 06:10:18;;;;;;;8.73;3.80;;;12.60;99.90;;;;;;5043367;28;20224;-81
2023/06/01 06:12:45;;;;;;;9.40;4.30;;;12.60;99.90;;;;;;5066553;28;20675;-81
2023/06/01 06:15:12;;;;;;;9.60;4.17;;;12.60;99.90;;;;;;5052780;28;20231;-80
2023/06/01 06:17:40;;;;;;;8.70;4.30;;;12.60;99.90;;;;;;5050769;28;20232;-83
2023/06/01 06:20:08;;;;;;;9.17;3.97;;;12.70;99.90;;;;;;5041532;28;20711;-81
2023/06/01 06:22:35;;;;;;;9.30;3.60;;;12.70;99.90;;;;;;5062220;28;20258;-80
2023/06/01 06:25:02;;;;;;;8.67;3.60;;;12.70;99.90;;;;;;5062693;28;20231;-80
2023/06/01 06:27:29;;;;;;;11.77;3.77;;;12.70;99.90;;;;;;5060863;28;22457;-81
2023/06/01 06:29:55;;;;;;;8.67;3.70;;;12.70;99.90;;;;;;5043330;28;20222;-80
2023/06/01 06:32:22;;;;;;;8.77;5.47;;;12.70;99.90;;;;;;5057232;28;20328;-81
2023/06/01 06:34:50;;;;;;;13.87;4.30;;;12.70;99.90;;;;;;5063978;28;20232;-80
2023/06/01 06:37:17;;;;;;;11.47;4.00;;;12.70;99.90;;;;;;5062544;28;20219;-80
2023/06/01 06:39:45;;;;;;;10.40;3.57;;;12.70;99.90;;;;;;5046081;28;20364;-81
2023/06/01 06:42:11;;;;;;;9.77;4.13;;;12.70;99.90;;;;;;5060140;28;20354;-80
2023/06/01 06:44:38;;;;;;;18.07;5.47;;;12.70;99.90;;;;;;5064323;28;20702;-80
2023/06/01 06:47:05;;;;;;;11.77;4.03;;;12.70;99.90;;;;;;5060397;28;21199;-81
2023/06/01 06:49:32;;;;;;;10.57;3.63;;;12.70;99.90;;;;;;5061084;28;20230;-81
2023/06/01 06:52:00;;;;;;;8.33;3.30;;;12.70;99.90;;;;;;5061577;28;20220;-81
2023/06/01 06:54:27;;;;;;;10.00;4.00;;;12.70;99.90;;;;;;5062594;28;20227;-81
2023/06/01 06:56:53;;;;;;;11.33;3.53;;;12.80;99.90;;;;;;5043092;28;20676;-80
2023/06/01 06:59:20;;;;;;;121.40;24.77;;;12.90;99.90;;;;;;5042504;28;20215;-80
2023/06/01 07:01:47;;;;;;;16.50;5.50;;;12.90;99.90;;;;;;5061262;28;20229;-81
2023/06/01 07:04:14;;;;;;;15.77;4.40;;;13.00;99.90;;;;;;5044314;28;20222;-81
2023/06/01 07:06:41;;;;;;;19.07;4.77;;;13.10;99.90;;;;;;5062599;28;20281;-81
2023/06/01 07:09:09;;;;;;;13.10;4.40;;;13.10;99.90;;;;;;5042610;28;20226;-80
2023/06/01 07:11:36;;;;;;;10.80;3.70;;;13.20;99.90;;;;;;5057034;28;20709;-80
2023/06/01 07:14:03;;;;;;;7.03;3.50;;;13.30;99.90;;;;;;5041251;28;20225;-81
2023/06/01 07:16:30;;;;;;;8.20;3.27;;;13.40;99.90;;;;;;5040946;28;20336;-81
2023/06/01 07:18:57;;;;;;;10.50;3.37;;;13.50;99.90;;;;;;5045741;28;20222;-81
2023/06/01 07:21:23;;;;;;;8.53;3.80;;;13.50;99.90;;;;;;5042239;28;20648;-81
2023/06/01 07:23:50;;;;;;;13.07;4.10;;;13.60;99.90;;;;;;5060829;28;20664;-80
2023/06/01 07:26:18;;;;;;;6.93;3.00;;;13.60;99.90;;;;;;5059620;28;20225;-80
2023/06/01 07:28:46;;;;;;;10.77;3.37;;;13.70;99.90;;;;;;5053102;28;20230;-81
2023/06/01 07:31:12;;;;;;;8.60;3.43;;;13.80;99.90;;;;;;5061170;28;20665;-81
2023/06/01 07:33:40;;;;;;;10.03;2.80;;;13.90;99.90;;;;;;5060707;28;20586;-82
2023/06/01 07:36:07;;;;;;;9.13;3.00;;;14.00;99.90;;;;;;5062498;28;20226;-81
2023/06/01 07:38:34;;;;;;;8.20;2.50;;;14.00;99.90;;;;;;5062846;28;20234;-82
2023/06/01 07:41:01;;;;;;;9.60;3.07;;;14.10;99.90;;;;;;5047967;28;20222;-81
2023/06/01 07:43:29;;;;;;;8.67;2.67;;;14.10;99.90;;;;;;5062513;28;20230;-80
2023/06/01 07:45:57;;;;;;;9.60;2.70;;;14.20;99.90;;;;;;5049439;28;20222;-80
2023/06/01 07:48:24;;;;;;;6.07;2.40;;;14.20;99.90;;;;;;5064702;28;20240;-81
2023/06/01 07:50:51;;;;;;;3.67;2.07;;;14.30;99.90;;;;;;5065682;28;20229;-85
2023/06/01 07:53:18;;;;;;;8.30;2.67;;;14.30;99.90;;;;;;5061903;28;20258;-80
2023/06/01 07:55:48;;;;;;;9.07;3.30;;;14.30;99.90;;;;;;5063920;28;20310;-81
2023/06/01 07:58:15;;;;;;;7.30;2.30;;;14.50;99.90;;;;;;5043982;28;20289;-83
2023/06/01 08:00:44;;;;;;;9.83;2.97;;;14.50;99.90;;;;;;5067121;28;20708;-80
2023/06/01 08:03:10;;;;;;;5.40;2.43;;;14.60;99.90;;;;;;5065248;28;20218;-79
2023/06/01 08:05:38;;;;;;;7.47;2.80;;;14.60;99.90;;;;;;5063175;28;20229;-83
2023/06/01 08:08:04;;;;;;;11.87;2.67;;;14.70;99.90;;;;;;5064684;28;20235;-80
2023/06/01 08:10:31;;;;;;;9.20;2.70;;;14.70;99.70;;;;;;5066582;28;20257;-82
2023/06/01 08:12:58;;;;;;;8.63;2.70;;;14.70;99.50;;;;;;5067470;28;20556;-80
2023/06/01 08:15:27;;;;;;;8.37;3.00;;;14.70;99.60;;;;;;5063373;28;20278;-79
2023/06/01 08:17:55;;;;;;;7.27;2.47;;;14.70;99.60;;;;;;5063814;28;20528;-81
2023/06/01 08:20:22;;;;;;;10.00;3.07;;;14.80;99.80;;;;;;5043946;28;20234;-81
2023/06/01 08:22:50;;;;;;;10.77;2.83;;;14.80;99.60;;;;;;5062302;28;20598;-81
2023/06/01 08:25:17;;;;;;;7.43;2.97;;;14.80;99.60;;;;;;5048687;28;20219;-79
2023/06/01 08:27:44;;;;;;;9.83;2.97;;;14.90;99.60;;;;;;5064287;28;20227;-84
2023/06/01 08:30:11;;;;;;;9.53;3.07;;;14.90;99.30;;;;;;5064371;28;20414;-79
2023/06/01 08:32:38;;;;;;;9.37;3.13;;;15.00;99.30;;;;;;5064176;28;20223;-83
2023/06/01 08:35:08;;;;;;;9.67;3.47;;;15.00;99.20;;;;;;5062167;28;20284;-80
2023/06/01 08:37:35;;;;;;;9.17;3.10;;;15.10;99.20;;;;;;5046041;28;20285;-80
2023/06/01 08:40:03;;;;;;;8.13;3.50;;;15.10;99.10;;;;;;5062751;28;20227;-79
2023/06/01 08:42:35;;;;;;;9.80;3.37;;;15.20;99.10;;;;;;5062478;28;20310;-80
2023/06/01 08:45:06;;;;;;;10.93;3.57;;;15.30;99.10;;;;;;5064503;28;20275;-80
2023/06/01 08:47:33;;;;;;;9.13;3.60;;;15.30;99.00;;;;;;5043523;28;20228;-80
2023/06/01 08:50:00;;;;;;;6.53;2.67;;;15.40;99.00;;;;;;5064828;28;20233;-82
2023/06/01 08:52:31;;;;;;;9.80;3.43;;;15.50;99.00;;;;;;5043344;28;20219;-89
2023/06/01 08:54:59;;;;;;;10.07;3.07;;;15.60;98.70;;;;;;5044741;28;20265;-80
2023/06/01 08:57:26;;;;;;;10.83;3.07;;;15.70;98.90;;;;;;5062747;28;20227;-80
2023/06/01 08:59:53;;;;;;;9.27;3.77;;;15.80;98.60;;;;;;5061359;28;20223;-79
2023/06/01 09:02:20;;;;;;;8.50;3.47;;;16.00;98.50;;;;;;5047494;28;20227;-80
2023/06/01 09:04:46;;;;;;;10.13;3.50;;;16.10;98.60;;;;;;5063455;28;20223;-80
2023/06/01 09:07:15;;;;;;;8.60;3.60;;;16.30;98.30;;;;;;5063228;28;20225;-80
2023/06/01 09:09:44;;;;;;;7.93;3.40;;;16.40;97.80;;;;;;5063104;28;20223;-81
2023/06/01 09:12:23;;;;;;;7.80;2.80;;;16.50;97.50;;;;;;5047978;28;20273;-80
2023/06/01 09:14:50;;;;;;;10.40;2.90;;;16.60;97.10;;;;;;5064244;28;20230;-82
2023/06/01 09:17:22;;;;;;;7.70;3.00;;;16.70;97.20;;;;;;5064288;28;20226;-80
2023/06/01 09:19:51;;;;;;;9.57;3.17;;;16.80;96.80;;;;;;5062625;28;20223;-80
2023/06/01 09:22:18;;;;;;;9.90;2.80;;;16.90;96.50;;;;;;5064107;28;20234;-82
2023/06/01 09:24:56;;;;;;;5.43;2.23;;;16.90;96.10;;;;;;5048015;28;20254;-81
2023/06/01 09:27:23;;;;;;;6.40;2.45;;;17.10;95.90;;;;;;5044922;28;20215;-82
2023/06/01 09:29:54;;;;;;;6.85;2.70;;;17.20;95.90;;;;;;5055966;22;20533;-91
2023/06/01 09:32:25;;;;;;;7.43;3.30;;;17.40;96.30;;;;;;4999925;28;20273;-95
2023/06/01 09:34:53;;;;;;;13.07;2.85;;;17.70;95.70;;;;;;5002385;28;20233;-91
2023/06/01 09:37:20;;;;;;;7.05;2.72;;;17.90;95.60;;;;;;4974060;28;20290;-91
2023/06/01 09:39:51;;;;;;;8.10;3.25;;;18.10;95.00;;;;;;5000783;28;20231;-92
2023/06/01 09:42:18;;;;;;;7.10;2.65;;;18.20;94.40;;;;;;5049114;23;20224;-78
2023/06/01 09:44:46;;;;;;;10.38;3.47;;;18.30;94.30;;;;;;5049928;28;20224;-78
2023/06/01 09:47:13;;;;;;;5.70;2.50;;;18.20;94.20;;;;;;5048517;28;20903;-75
2023/06/01 09:49:41;;;;;;;7.68;3.05;;;18.20;94.20;;;;;;5050227;28;20257;-77
2023/06/01 09:52:14;;;;;;;11.20;2.80;;;18.10;94.20;;;;;;5038225;28;20227;-78
2023/06/01 09:54:43;;;;;;;7.13;2.85;;;18.10;93.20;;;;;;5029814;28;20717;-77
2023/06/01 09:57:13;;;;;;;8.37;3.00;;;18.00;93.40;;;;;;5040766;28;20226;-77
2023/06/01 09:59:42;;;;;;;7.43;3.05;;;18.00;93.30;;;;;;5022215;28;20266;-75
2023/06/01 10:02:12;;;;;;;10.20;2.80;;;17.90;93.30;;;;;;5041283;28;20310;-77
2023/06/01 10:04:41;;;;;;;7.90;3.17;;;17.90;93.70;;;;;;5039796;28;20224;-77
2023/06/01 10:07:10;;;;;;;8.52;2.97;;;18.00;93.70;;;;;;5024032;28;20224;-77
2023/06/01 10:09:39;;;;;;;6.80;2.85;;;18.10;93.80;;;;;;5039028;28;20234;-77
2023/06/01 10:12:07;;;;;;;9.23;3.00;;;18.20;93.80;;;;;;5042806;28;20220;-77
2023/06/01 10:14:37;;;;;;;8.85;2.70;;;18.40;93.40;;;;;;5044870;28;20677;-77
2023/06/01 10:17:04;;;;;;;7.03;2.80;;;18.50;92.90;;;;;;5041275;28;20216;-76
2023/06/01 10:19:31;;;;;;;7.03;2.70;;;18.50;92.60;;;;;;5043325;28;20230;-77
2023/06/01 10:22:00;;;;;;;8.65;2.88;;;18.60;92.30;;;;;;5038954;28;20213;-78
2023/06/01 10:24:28;;;;;;;6.85;2.80;;;18.60;91.90;;;;;;5040889;28;20235;-76
2023/06/01 10:27:05;;;;;;;6.93;2.60;;;18.70;92.10;;;;;;5040291;28;20226;-77
2023/06/01 10:29:33;;;;;;;9.80;2.97;;;18.90;91.70;;;;;;5041569;28;20239;-77
2023/06/01 10:32:01;;;;;;;7.68;2.75;;;19.10;91.80;;;;;;5045479;28;20274;-77
2023/06/01 10:34:39;;;;;;;7.25;2.72;;;19.40;91.10;;;;;;5015889;28;20230;-76
2023/06/01 10:37:12;;;;;;;7.88;2.80;;;19.60;90.50;;;;;;5057393;28;20223;-78
2023/06/01 10:39:39;;;;;;;6.25;3.03;;;20.00;90.40;;;;;;5044210;28;20232;-78
2023/06/01 10:42:49;;;;;;;7.55;2.63;;;20.20;90.00;;;;;;5041543;28;20297;-78
2023/06/01 10:45:46;;;;;;;9.40;2.92;;;20.30;88.30;;;;;;5042761;28;20586;-76
2023/06/01 10:48:14;;;;;;;6.07;2.40;;;20.50;86.60;;;;;;4955622;28;20303;-78
2023/06/01 10:50:42;;;;;;;9.35;2.63;;;20.60;86.50;;;;;;5024692;28;20238;-78
2023/06/01 10:53:27;;;;;;;9.15;2.70;;;20.50;85.40;;;;;;5041637;28;20242;-78
2023/06/01 10:56:18;;;;;;;9.40;2.63;;;20.50;83.90;;;;;;5045955;28;20693;-78
2023/06/01 10:58:45;;;;;;;11.70;2.67;;;20.50;84.10;;;;;;5038948;28;20227;-78
2023/06/01 11:01:19;;;;;;;5.93;2.65;;;20.50;85.30;;;;;;5043337;28;20231;-78
2023/06/01 11:03:50;;;;;;;9.57;3.15;;;20.50;84.60;;;;;;5037946;28;20225;-77
2023/06/01 11:06:29;;;;;;;6.65;2.80;;;20.60;84.40;;;;;;5035748;28;20616;-78
2023/06/01 11:08:58;;;;;;;8.25;2.70;;;20.70;84.90;;;;;;5031661;28;20772;-77
2023/06/01 11:11:59;;;;;;;5.95;2.55;;;20.80;84.10;;;;;;5041946;28;20227;-78
2023/06/01 11:14:29;;;;;;;7.40;2.35;;;20.80;83.70;;;;;;5036963;28;20224;-78
2023/06/01 11:16:58;;;;;;;8.10;2.65;;;20.90;82.70;;;;;;5024270;28;20219;-78
2023/06/01 11:19:27;;;;;;;7.20;2.65;;;20.80;82.80;;;;;;5044363;28;20591;-78
2023/06/01 11:22:00;;;;;;;6.63;2.88;;;20.80;82.60;;;;;;5032075;28;20235;-78
2023/06/01 11:24:33;;;;;;;6.03;2.78;;;20.80;82.90;;;;;;5048915;28;20227;-77
2023/06/01 11:27:06;;;;;;;10.43;2.38;;;20.70;82.20;;;;;;5045945;28;20228;-78
2023/06/01 11:29:33;;;;;;;9.50;2.63;;;20.70;81.80;;;;;;5053305;28;20266;-75
2023/06/01 11:32:00;;;;;;;8.45;2.60;;;20.70;83.00;;;;;;5044950;28;20227;-76
2023/06/01 11:34:32;;;;;;;9.38;2.97;;;20.80;83.50;;;;;;5046748;28;20230;-75
2023/06/01 11:36:59;;;;;;;7.78;2.47;;;20.80;82.40;;;;;;5048685;28;20737;-78
2023/06/01 11:39:28;;;;;;;6.95;2.47;;;20.90;82.00;;;;;;5022204;28;20687;-77
2023/06/01 11:42:06;;;;;;;6.95;2.75;;;20.90;81.70;;;;;;5030092;28;20690;-77
2023/06/01 11:44:33;;;;;;;7.80;2.33;;;20.80;80.50;;;;;;5050587;28;20216;-77
2023/06/01 11:47:00;;;;;;;9.73;3.08;;;20.70;81.50;;;;;;5053115;28;20227;-77
2023/06/01 11:49:29;;;;;;;9.75;2.80;;;20.70;81.80;;;;;;5046592;28;20242;-76
2023/06/01 11:51:57;;;;;;;6.22;2.63;;;20.60;81.60;;;;;;5047786;28;20235;-75
2023/06/01 11:54:26;;;;;;;6.40;2.47;;;20.50;81.70;;;;;;5044861;28;20243;-77
2023/06/01 11:56:54;;;;;;;6.65;2.72;;;20.40;81.80;;;;;;5042296;28;20232;-77
2023/06/01 11:59:22;;;;;;;8.30;2.75;;;20.40;81.60;;;;;;5052245;28;20216;-76
2023/06/01 12:01:51;;;;;;;6.22;2.53;;;20.40;81.20;;;;;;5053823;28;20612;-76
2023/06/01 12:04:20;;;;;;;6.82;2.47;;;20.40;81.30;;;;;;5045960;28;20306;-78
2023/06/01 12:06:49;;;;;;;7.13;2.30;;;20.30;81.70;;;;;;5048173;28;20224;-75
2023/06/01 12:09:16;;;;;;;6.32;2.28;;;20.40;81.90;;;;;;5048957;28;20278;-77
2023/06/01 12:11:45;;;;;;;8.07;2.50;;;20.40;82.30;;;;;;5040698;28;20232;-77
2023/06/01 12:14:12;;;;;;;6.35;2.40;;;20.40;82.10;;;;;;5046827;28;20274;-77
2023/06/01 12:16:56;;;;;;;6.35;2.03;;;20.40;81.40;;;;;;5044906;28;20690;-77
2023/06/01 12:19:23;;;;;;;8.60;2.67;;;20.40;80.20;;;;;;5045529;28;20223;-78
2023/06/01 12:21:53;;;;;;;6.68;1.80;;;20.40;80.50;;;;;;5043665;28;20228;-78
2023/06/01 12:24:28;;;;;;;7.43;2.30;;;20.30;80.80;;;;;;5045429;28;20224;-78
2023/06/01 12:26:55;;;;;;;6.32;2.15;;;20.20;81.00;;;;;;5064263;28;20221;-76
2023/06/01 12:29:35;;;;;;;6.53;2.45;;;20.20;81.70;;;;;;5067730;28;20286;-78
2023/06/01 12:32:02;;;;;;;5.38;2.17;;;20.20;81.70;;;;;;5065386;28;20624;-77
2023/06/01 12:34:29;;;;;;;7.55;2.10;;;20.30;82.20;;;;;;5063582;28;20303;-78
2023/06/01 12:36:57;;;;;;;5.60;1.83;;;20.40;81.50;;;;;;5055752;28;20645;-77
2023/06/01 12:39:36;;;;;;;9.60;2.15;;;20.40;81.30;;;;;;5050711;28;20239;-76
2023/06/01 12:42:04;;;;;;;6.85;1.98;;;20.40;80.20;;;;;;5071556;28;20215;-77
2023/06/01 12:44:30;;;;;;;7.90;2.38;;;20.40;80.00;;;;;;5062726;28;20269;-76
2023/06/01 12:46:58;;;;;;;6.97;1.95;;;20.40;79.20;;;;;;5062032;28;20243;-76
2023/06/01 12:49:25;;;;;;;5.97;2.20;;;20.40;79.20;;;;;;5063848;28;20271;-78